Crozier, Virginia
Current Conditions -  °F | °C
As of 9:54 AM on Monday 24 Nov 2014 (Local Time) from KOFP Reporting Station
Overcast Overcast  
Wind Chill: 66°   Ceiling: 2700
Heat Index: 66°   Visibility: 10mi
Dew Point: 57°   Wind: 15mph
Humidity: 73%   Direction: 200°SSW
Pressure: 29.77"   Gusts: 24mph
Location:  37.65°N, 77.8°W
Report Text: KOFP 241454Z AUTO 20013G21KT 10SM OVC027 19/14 A2977 RMK AO2 SLP080 T01890139 51014
Loading
Personal Weather Stations






























Interactive Weather Map New forecast layout! Learn more

10-Day Weather Forecast

Advertisements
Track Severe Weather on mobile